New York, New York
Traffic Map
Current Weather Conditions
New York, New York
Clear
Clear
45°
Feels Like: 45°
Wind Chill: 45° Ceiling: Unl
Heat Index: 45° Visibility: 10mi
Dew Point: 32° Wind: 0mph
Humidity: 60% Direction: ° ()
Pressure: 30.08in Gusts: 0mph
Raw Report DataKNYC 060051Z AUTO 00000KT 10SM CLR 07/00 A3008 RMK AO2 SLP176 T00720000 $
Traffic Incident Summary
Active as of:
Severity:
Category:
InformationThere was an issue retrieving the traffic information for this location. Please try a different location or try again shortly.
Advertisements
Track Severe Weather on mobile